Time;durP1;ratioP1;P1;durP2;ratioP2;P2;SDS_P1;SDS_P2;PMS_P1;PMS_P2;Temp;Humidity;BMP_temperature;BMP_pressure;BME280_temperature;BME280_humidity;BME280_pressure;Samples;Min_cycle;Max_cycle;Signal;HPM_P1;HPM_P2
2023/04/10 00:00:24;;;;;;;;;21.50;18.50;;;;;11.42;55.26;102046.53;5014371;28;10813;-67
2023/04/10 00:02:51;;;;;;;;;26.00;21.00;;;;;11.42;55.20;102043.00;5020995;28;10871;-67
2023/04/10 00:05:18;;;;;;;;;25.25;23.50;;;;;11.45;55.44;102042.66;5010813;28;10878;-73
2023/04/10 00:07:44;;;;;;;;;24.00;23.00;;;;;11.40;55.07;102035.09;5024436;28;11025;-67
2023/04/10 00:10:11;;;;;;;;;18.00;16.75;;;;;11.32;55.39;102027.84;5023421;28;11107;-69
2023/04/10 00:12:37;;;;;;;;;18.75;18.00;;;;;11.32;55.31;102014.38;5029566;28;10927;-66
2023/04/10 00:15:04;;;;;;;;;22.25;18.75;;;;;11.29;55.49;102003.09;5019271;28;10979;-67
2023/04/10 00:17:30;;;;;;;;;24.75;22.00;;;;;11.26;55.34;102019.59;5013371;28;10969;-68
2023/04/10 00:19:58;;;;;;;;;24.75;23.50;;;;;11.17;55.41;102013.38;5011294;28;11037;-67
2023/04/10 00:22:25;;;;;;;;;24.00;22.00;;;;;11.18;55.80;102001.59;5020504;28;10907;-67
2023/04/10 00:24:52;;;;;;;;;19.75;17.25;;;;;11.19;55.68;102005.13;5023860;28;10815;-67
2023/04/10 00:27:18;;;;;;;;;19.50;19.50;;;;;11.17;55.96;102002.59;5024577;28;10877;-69
2023/04/10 00:29:44;;;;;;;;;25.00;21.50;;;;;11.18;55.93;101996.22;5022914;28;10888;-67
2023/04/10 00:32:11;;;;;;;;;20.50;20.25;;;;;11.15;55.52;101996.53;5023646;28;11053;-68
2023/04/10 00:34:37;;;;;;;;;25.00;18.25;;;;;11.12;55.62;101988.78;5016654;28;10871;-67
2023/04/10 00:37:04;;;;;;;;;19.50;18.00;;;;;11.10;56.15;101988.09;5020833;28;11041;-67
2023/04/10 00:39:30;;;;;;;;;21.25;18.75;;;;;11.09;55.88;101983.75;5023051;28;11137;-69
2023/04/10 00:41:57;;;;;;;;;19.25;18.00;;;;;11.06;56.37;101979.56;5016263;28;11212;-69
2023/04/10 00:44:23;;;;;;;;;16.50;15.75;;;;;11.06;56.32;101975.97;5018748;28;10820;-68
2023/04/10 00:46:50;;;;;;;;;26.25;22.50;;;;;11.08;55.58;101980.19;5023468;28;10867;-67
2023/04/10 00:49:17;;;;;;;;;23.75;18.00;;;;;10.96;56.01;101978.03;5017852;28;10991;-67
2023/04/10 00:51:44;;;;;;;;;17.00;17.00;;;;;10.94;56.70;101974.66;5017176;28;10970;-67
2023/04/10 00:54:11;;;;;;;;;21.50;17.00;;;;;10.90;56.76;101971.47;5016675;28;11495;-66
2023/04/10 00:56:38;;;;;;;;;21.00;18.50;;;;;10.94;56.55;101971.94;5014534;28;10843;-68
2023/04/10 00:59:04;;;;;;;;;26.25;23.00;;;;;10.95;56.79;101973.66;5031076;28;10872;-67
2023/04/10 01:01:32;;;;;;;;;26.25;21.00;;;;;10.98;56.63;101970.59;5045054;28;11161;-68
2023/04/10 01:03:59;;;;;;;;;20.25;20.00;;;;;10.98;56.21;101960.69;5023180;28;11005;-70
2023/04/10 01:07:10;;;;;;;;;15.50;14.50;;;;;11.00;57.05;101964.03;5017810;28;11041;-70
2023/04/10 01:09:43;;;;;;;;;21.50;20.50;;;;;10.93;56.83;101954.09;5020763;28;10818;-68
2023/04/10 01:12:22;;;;;;;;;20.00;17.00;;;;;10.86;57.46;101941.34;5017640;28;10958;-68
2023/04/10 01:15:01;;;;;;;;;18.50;16.50;;;;;10.87;57.40;101942.16;5021583;28;11007;-67
2023/04/10 01:17:51;;;;;;;;;22.25;19.75;;;;;10.87;57.54;101939.47;5021075;28;10873;-68
2023/04/10 01:20:21;;;;;;;;;20.75;16.25;;;;;10.85;57.47;101933.41;5019073;28;10832;-68
2023/04/10 01:23:19;;;;;;;;;26.00;23.50;;;;;10.77;57.17;101934.25;5022452;28;10862;-67
2023/04/10 01:26:02;;;;;;;;;19.75;18.75;;;;;10.72;58.00;101933.06;5027416;28;11042;-68
2023/04/10 01:28:50;;;;;;;;;21.75;19.25;;;;;10.63;57.88;101926.84;5020515;28;10988;-67
2023/04/10 01:31:28;;;;;;;;;15.50;15.00;;;;;10.64;58.29;101926.69;5017351;28;11092;-67
2023/04/10 01:34:05;;;;;;;;;19.25;17.75;;;;;10.62;58.30;101920.63;5015485;28;11236;-68
2023/04/10 01:36:36;;;;;;;;;19.25;17.75;;;;;10.61;58.88;101921.66;5027297;28;11028;-69
2023/04/10 01:39:06;;;;;;;;;20.75;16.75;;;;;10.60;58.55;101924.50;5023526;28;10945;-68
2023/04/10 01:41:35;;;;;;;;;20.25;16.75;;;;;10.57;58.86;101914.06;5033394;28;10850;-68
2023/04/10 01:44:03;;;;;;;;;21.00;17.50;;;;;10.55;59.00;101911.53;5014940;28;10911;-69
2023/04/10 01:46:31;;;;;;;;;16.75;16.00;;;;;10.61;58.71;101918.09;5026888;28;10805;-67
2023/04/10 01:49:01;;;;;;;;;7.50;7.50;;;;;10.57;58.83;101914.91;5029058;28;10799;-66
2023/04/10 01:51:29;;;;;;;;;26.00;21.25;;;;;10.56;58.33;101913.22;5032389;28;10571;-66
2023/04/10 01:54:00;;;;;;;;;21.50;21.00;;;;;10.52;58.90;101911.88;5031971;28;10914;-69
2023/04/10 01:56:27;;;;;;;;;14.75;14.75;;;;;10.49;58.96;101903.28;5022714;28;10945;-67
2023/04/10 01:58:55;;;;;;;;;16.25;14.75;;;;;10.56;58.94;101907.81;5013535;28;10837;-66
2023/04/10 02:01:21;;;;;;;;;20.75;18.25;;;;;10.58;59.35;101902.28;5020461;28;10875;-66
2023/04/10 02:03:57;;;;;;;;;22.00;19.00;;;;;10.61;59.27;101896.53;5026919;28;11165;-66
2023/04/10 02:06:59;;;;;;;;;20.75;19.50;;;;;10.63;59.24;101916.09;5025544;28;11789;-66
2023/04/10 02:09:44;;;;;;;;;28.00;24.50;;;;;10.58;58.97;101905.00;5031934;28;10981;-67
2023/04/10 02:12:16;;;;;;;;;19.50;17.75;;;;;10.58;58.99;101897.75;5023370;28;11056;-69
2023/04/10 02:14:45;;;;;;;;;14.75;14.75;;;;;10.63;58.90;101895.38;5020497;28;11022;-67
2023/04/10 02:17:14;;;;;;;;;15.50;15.00;;;;;10.63;59.01;101890.00;5022739;28;11057;-67
2023/04/10 02:19:44;;;;;;;;;13.00;13.00;;;;;10.59;58.98;101894.03;5026905;28;10889;-66
2023/04/10 02:22:14;;;;;;;;;19.75;17.75;;;;;10.58;59.06;101888.84;5028731;28;11605;-66
2023/04/10 02:24:41;;;;;;;;;16.25;16.25;;;;;10.58;59.15;101892.38;5026686;28;10998;-66
2023/04/10 02:27:09;;;;;;;;;20.25;19.25;;;;;10.59;59.51;101891.34;5026049;28;11000;-68
2023/04/10 02:29:36;;;;;;;;;20.50;18.75;;;;;10.63;59.08;101887.31;5032059;28;10995;-67
2023/04/10 02:32:05;;;;;;;;;16.00;13.00;;;;;10.66;59.40;101883.44;5030369;28;10984;-65
2023/04/10 02:34:32;;;;;;;;;13.00;13.00;;;;;10.69;58.93;101893.00;5024253;28;10768;-67
2023/04/10 02:36:58;;;;;;;;;17.75;15.25;;;;;10.68;58.99;101889.47;5016126;28;10879;-67
2023/04/10 02:39:28;;;;;;;;;15.25;13.00;;;;;10.67;59.10;101889.66;5027082;28;11108;-67
2023/04/10 02:41:55;;;;;;;;;18.25;16.75;;;;;10.68;59.03;101892.19;5014441;28;10812;-67
2023/04/10 02:44:21;;;;;;;;;17.00;14.50;;;;;10.65;59.30;101889.81;5019354;28;10968;-67
2023/04/10 02:46:48;;;;;;;;;20.00;19.25;;;;;10.61;59.28;101892.03;5024788;28;11037;-67
2023/04/10 02:49:15;;;;;;;;;21.75;21.25;;;;;10.56;59.01;101905.13;5018121;28;10975;-67
2023/04/10 02:51:43;;;;;;;;;18.75;15.00;;;;;10.56;59.57;101909.69;5022316;28;11040;-68
2023/04/10 02:54:10;;;;;;;;;14.50;13.75;;;;;10.58;59.50;101905.81;5014394;28;10998;-68
2023/04/10 02:56:38;;;;;;;;;14.25;14.25;;;;;10.56;59.37;101902.44;5019473;28;11410;-68
2023/04/10 02:59:04;;;;;;;;;17.75;16.50;;;;;10.59;59.15;101901.28;5025088;28;10883;-68
2023/04/10 03:01:32;;;;;;;;;17.75;15.25;;;;;10.60;59.41;101902.94;5017047;28;10819;-69
2023/04/10 03:03:59;;;;;;;;;17.25;15.50;;;;;10.59;59.36;101898.59;5020535;28;11006;-68
2023/04/10 03:06:30;;;;;;;;;12.00;12.00;;;;;10.55;59.38;101890.00;5019796;28;11091;-68
2023/04/10 03:08:57;;;;;;;;;14.25;13.25;;;;;10.52;59.20;101895.72;5010230;28;10704;-68
2023/04/10 03:11:25;;;;;;;;;13.50;13.25;;;;;10.49;59.68;101889.81;5018045;28;11100;-68
2023/04/10 03:13:52;;;;;;;;;13.75;12.00;;;;;10.45;59.54;101893.84;5020091;28;10809;-68
2023/04/10 03:16:20;;;;;;;;;15.00;15.00;;;;;10.48;59.79;101890.84;5015963;28;11048;-68
2023/04/10 03:18:47;;;;;;;;;15.25;12.25;;;;;10.50;59.43;101889.66;5045887;28;11015;-68
2023/04/10 03:21:13;;;;;;;;;15.50;13.00;;;;;10.54;59.44;101885.63;5022398;28;10786;-68
2023/04/10 03:23:41;;;;;;;;;13.25;13.00;;;;;10.45;58.82;101875.00;5021678;28;10897;-67
2023/04/10 03:26:07;;;;;;;;;13.25;12.50;;;;;10.46;58.89;101874.88;5021130;28;10895;-68
2023/04/10 03:28:38;;;;;;;;;12.50;10.25;;;;;10.47;58.84;101873.84;5035611;28;10815;-69
2023/04/10 03:31:05;;;;;;;;;17.25;15.00;;;;;10.44;59.48;101881.41;5026126;28;10708;-68
2023/04/10 03:33:34;;;;;;;;;14.25;11.75;;;;;10.43;59.36;101868.97;5025184;28;11019;-68
2023/04/10 03:36:01;;;;;;;;;14.00;14.00;;;;;10.46;59.32;101865.94;5021913;28;10899;-69
2023/04/10 03:38:28;;;;;;;;;14.25;13.50;;;;;10.47;59.02;101871.16;5021942;28;10918;-68
2023/04/10 03:40:54;;;;;;;;;15.75;11.25;;;;;10.46;59.13;101860.56;5024078;28;10817;-68
2023/04/10 03:43:24;;;;;;;;;13.50;11.25;;;;;10.43;59.19;101864.44;5040119;28;10927;-68
2023/04/10 03:45:50;;;;;;;;;13.25;10.25;;;;;10.43;58.90;101860.91;5021850;28;10739;-68
2023/04/10 03:48:17;;;;;;;;;14.25;12.50;;;;;10.43;58.99;101852.81;5024396;28;11323;-68
2023/04/10 03:50:45;;;;;;;;;20.75;14.50;;;;;10.44;59.04;101860.72;5016302;28;12666;-69
2023/04/10 03:53:12;;;;;;;;;14.00;12.50;;;;;10.39;58.69;101845.06;5019116;28;10813;-68
2023/04/10 03:55:39;;;;;;;;;14.50;12.25;;;;;10.38;58.97;101850.63;5025321;28;10972;-70
2023/04/10 03:58:06;;;;;;;;;12.50;12.50;;;;;10.40;59.24;101840.53;5045547;28;10730;-67
2023/04/10 04:00:33;;;;;;;;;18.00;17.75;;;;;10.36;59.10;101845.41;5011106;28;10782;-67
2023/04/10 04:03:23;;;;;;;;;10.00;10.00;;;;;10.31;59.31;101847.78;4979486;28;10957;-69
2023/04/10 04:06:01;;;;;;;;;15.75;13.25;;;;;10.34;59.54;101846.59;5020662;28;10828;-68
2023/04/10 04:08:41;;;;;;;;;15.25;14.50;;;;;10.34;58.69;101830.44;5020467;28;10826;-67
2023/04/10 04:11:22;;;;;;;;;16.75;13.00;;;;;10.31;58.91;101834.31;5013930;28;10891;-67
2023/04/10 04:14:18;;;;;;;;;15.75;13.50;;;;;10.30;59.24;101832.63;4974532;28;10840;-65
2023/04/10 04:17:14;;;;;;;;;10.25;10.25;;;;;10.31;59.22;101822.72;5008330;28;10857;-66
2023/04/10 04:19:59;;;;;;;;;13.25;9.75;;;;;10.32;58.63;101824.38;5019603;28;10880;-67
2023/04/10 04:23:04;;;;;;;;;11.25;10.00;;;;;10.32;58.74;101814.47;5000257;28;10900;-67
2023/04/10 04:25:42;;;;;;;;;18.00;15.00;;;;;10.35;58.83;101816.81;5018972;28;10829;-67
2023/04/10 04:28:27;;;;;;;;;15.75;12.75;;;;;10.33;58.63;101813.47;5016119;28;11004;-67
2023/04/10 04:31:08;;;;;;;;;16.00;14.25;;;;;10.33;58.20;101810.78;5017683;28;11733;-66
2023/04/10 04:33:54;;;;;;;;;12.75;11.00;;;;;10.27;58.24;101811.44;4990693;28;10881;-67
2023/04/10 04:36:40;;;;;;;;;12.50;12.50;;;;;10.28;58.38;101804.19;5015493;28;10894;-69
2023/04/10 04:39:17;;;;;;;;;19.50;15.50;;;;;10.29;58.79;101806.75;5018999;28;10787;-68
2023/04/10 04:41:58;;;;;;;;;18.50;15.50;;;;;10.26;58.28;101801.69;5022173;28;10808;-68
2023/04/10 04:44:43;;;;;;;;;16.00;15.00;;;;;10.16;58.31;101793.72;5013190;28;10886;-68
2023/04/10 04:47:28;;;;;;;;;13.75;13.75;;;;;10.21;58.57;101805.84;5019869;28;10796;-68
2023/04/10 04:50:13;;;;;;;;;16.50;13.50;;;;;10.25;58.65;101808.09;5025133;28;10717;-69
2023/04/10 04:53:00;;;;;;;;;13.50;11.00;;;;;10.29;58.74;101803.19;5011409;28;10802;-68
2023/04/10 04:55:47;;;;;;;;;14.25;10.75;;;;;10.31;58.07;101793.09;5026868;28;10802;-68
2023/04/10 04:58:23;;;;;;;;;9.75;9.25;;;;;10.31;58.13;101788.56;5027844;28;10927;-68
2023/04/10 05:01:08;;;;;;;;;17.00;14.00;;;;;10.31;58.19;101791.25;5018360;28;10768;-68
2023/04/10 05:04:04;;;;;;;;;11.00;11.00;;;;;10.32;57.74;101786.72;4968505;28;10875;-68
2023/04/10 05:06:54;;;;;;;;;13.50;11.75;;;;;10.28;57.97;101786.19;5010913;28;10759;-68
2023/04/10 05:09:40;;;;;;;;;12.75;12.75;;;;;10.27;58.19;101795.28;5018301;28;10853;-67
2023/04/10 05:12:22;;;;;;;;;13.00;10.25;;;;;10.28;57.96;101780.81;5022633;28;10877;-68
2023/04/10 05:14:57;;;;;;;;;11.00;10.00;;;;;10.28;57.69;101786.19;5022776;28;11570;-68
2023/04/10 05:17:34;;;;;;;;;9.75;8.00;;;;;10.33;57.59;101783.88;5019739;28;10894;-69
2023/04/10 05:20:13;;;;;;;;;10.75;10.75;;;;;10.37;57.79;101778.94;5021358;28;10795;-68
2023/04/10 05:22:54;;;;;;;;;16.25;16.00;;;;;10.30;57.75;101784.19;5026609;28;10889;-68
2023/04/10 05:25:52;;;;;;;;;13.00;11.00;;;;;10.31;57.92;101780.47;4999537;28;11034;-68
2023/04/10 05:28:31;;;;;;;;;12.00;12.00;;;;;10.32;58.06;101782.16;5026125;28;11586;-68
2023/04/10 05:31:11;;;;;;;;;14.75;14.00;;;;;10.34;58.08;101785.53;5017456;28;10889;-68
2023/04/10 05:33:48;;;;;;;;;12.00;10.75;;;;;10.34;58.09;101782.84;5016306;28;10975;-68
2023/04/10 05:36:23;;;;;;;;;13.50;11.25;;;;;10.39;58.21;101793.94;5033436;28;10818;-68
2023/04/10 05:38:56;;;;;;;;;14.00;14.00;;;;;10.40;57.63;101794.78;5020551;28;10885;-68
2023/04/10 05:41:34;;;;;;;;;12.75;12.25;;;;;10.39;57.95;101793.09;5017586;28;10860;-68
2023/04/10 05:44:24;;;;;;;;;12.50;9.75;;;;;10.39;58.39;101793.09;5016630;28;10883;-68
2023/04/10 05:47:19;;;;;;;;;12.25;10.50;;;;;10.40;58.35;101790.22;4963555;28;11549;-68
2023/04/10 05:49:55;;;;;;;;;10.50;9.25;;;;;10.37;58.80;101781.66;5024885;28;10904;-68
2023/04/10 05:52:34;;;;;;;;;16.25;15.00;;;;;10.34;58.38;101790.91;5028503;28;10820;-69
2023/04/10 05:55:19;;;;;;;;;16.50;12.50;;;;;10.26;58.78;101796.31;5018761;28;11041;-67
2023/04/10 05:57:59;;;;;;;;;14.00;14.00;;;;;10.21;58.82;101785.19;5022849;28;11648;-67
2023/04/10 06:00:46;;;;;;;;;18.50;13.00;;;;;10.12;58.98;101786.16;5026457;28;10808;-68
2023/04/10 06:03:33;;;;;;;;;16.00;14.00;;;;;10.02;59.40;101780.97;5019563;28;11064;-67
2023/04/10 06:06:01;;;;;;;;;16.75;16.00;;;;;10.03;59.64;101773.75;5022501;28;11062;-68
2023/04/10 06:08:29;;;;;;;;;15.00;15.00;;;;;10.03;59.55;101769.19;5027099;28;11037;-67
2023/04/10 06:10:56;;;;;;;;;16.00;16.00;;;;;10.02;59.97;101772.91;5014431;28;10984;-68
2023/04/10 06:13:23;;;;;;;;;19.25;13.00;;;;;10.01;60.14;101773.09;5021784;28;10932;-68
2023/04/10 06:15:53;;;;;;;;;19.25;14.00;;;;;9.97;60.25;101763.66;5017024;28;10914;-68
2023/04/10 06:18:20;;;;;;;;;19.25;16.25;;;;;9.97;60.55;101758.28;5028105;28;10955;-67
2023/04/10 06:20:47;;;;;;;;;14.00;14.00;;;;;10.01;60.35;101754.25;5027970;28;11104;-67
2023/04/10 06:23:13;;;;;;;;;18.00;14.50;;;;;10.04;59.89;101751.19;5023220;28;10977;-67
2023/04/10 06:25:40;;;;;;;;;14.50;14.50;;;;;10.07;59.26;101758.94;5027078;28;10884;-67
2023/04/10 06:28:07;;;;;;;;;15.25;13.75;;;;;10.05;60.26;101747.53;5017341;28;11047;-68
2023/04/10 06:30:36;;;;;;;;;18.75;15.75;;;;;10.01;60.07;101743.50;5038625;28;10998;-68
2023/04/10 06:33:05;;;;;;;;;22.50;20.00;;;;;10.04;59.46;101729.69;5020816;28;10938;-68
2023/04/10 06:35:35;;;;;;;;;17.25;15.75;;;;;10.08;59.99;101725.66;5015953;28;11078;-67
2023/04/10 06:38:02;;;;;;;;;16.25;16.25;;;;;10.09;59.64;101720.13;5026160;28;10955;-70
2023/04/10 06:40:33;;;;;;;;;20.50;16.00;;;;;10.22;60.63;101716.91;5028329;28;11683;-66
2023/04/10 06:43:00;;;;;;;;;16.75;16.75;;;;;10.21;60.15;101700.91;5020575;28;10909;-67
2023/04/10 06:45:33;;;;;;;;;15.25;13.50;;;;;10.20;60.21;101708.13;5028698;28;10986;-66
2023/04/10 06:47:59;;;;;;;;;16.25;14.00;;;;;10.22;60.18;101705.31;5021315;28;10983;-65
2023/04/10 06:50:26;;;;;;;;;19.25;16.00;;;;;10.24;59.78;101701.41;5024911;28;10880;-65
2023/04/10 06:52:54;;;;;;;;;18.00;16.50;;;;;10.24;59.52;101700.56;5017542;28;11054;-66
2023/04/10 06:55:21;;;;;;;;;19.00;18.75;;;;;10.26;59.06;101691.38;5028727;28;10955;-66
2023/04/10 06:57:47;;;;;;;;;16.00;14.25;;;;;10.27;58.82;101687.66;5023967;28;10892;-66
2023/04/10 07:00:14;;;;;;;;;17.00;15.50;;;;;10.28;58.95;101685.78;5013650;28;10968;-65
2023/04/10 07:02:40;;;;;;;;;15.50;14.50;;;;;10.26;58.61;101683.28;5023630;28;11682;-67
2023/04/10 07:05:07;;;;;;;;;22.25;18.00;;;;;10.30;58.44;101678.41;5019602;28;10790;-67
2023/04/10 07:07:34;;;;;;;;;14.25;12.25;;;;;10.32;58.95;101677.19;5019599;28;10869;-66
2023/04/10 07:10:01;;;;;;;;;17.50;16.25;;;;;10.35;58.84;101676.88;5018485;28;11604;-66
2023/04/10 07:12:28;;;;;;;;;19.75;17.50;;;;;10.29;58.45;101669.50;5029206;28;10892;-65
2023/04/10 07:14:54;;;;;;;;;17.75;17.25;;;;;10.33;58.16;101669.97;5022187;28;11100;-67
2023/04/10 07:17:21;;;;;;;;;17.75;15.75;;;;;10.32;58.15;101671.00;5017890;28;10938;-66
2023/04/10 07:19:47;;;;;;;;;18.75;17.25;;;;;10.42;58.31;101662.72;5024406;28;11027;-66
2023/04/10 07:22:14;;;;;;;;;18.25;13.50;;;;;10.51;58.20;101669.75;5017724;28;10973;-67
2023/04/10 07:24:41;;;;;;;;;20.75;18.00;;;;;10.60;57.97;101653.41;5019884;28;10997;-67
2023/04/10 07:27:07;;;;;;;;;20.25;18.50;;;;;10.70;57.64;101655.06;5026378;28;10926;-67
2023/04/10 07:29:34;;;;;;;;;20.50;17.00;;;;;10.78;57.49;101647.78;5029639;28;11004;-68
2023/04/10 07:32:00;;;;;;;;;17.50;17.25;;;;;10.85;57.23;101651.41;5013018;28;11008;-69
2023/04/10 07:34:27;;;;;;;;;20.25;13.50;;;;;10.91;57.20;101639.13;5019403;28;10889;-67
2023/04/10 07:36:53;;;;;;;;;15.25;14.00;;;;;10.93;56.57;101642.47;5018935;28;10814;-67
2023/04/10 07:39:20;;;;;;;;;17.25;15.25;;;;;10.86;56.35;101641.50;5010049;28;10816;-69
2023/04/10 07:41:46;;;;;;;;;15.50;15.00;;;;;10.88;56.41;101639.47;5029306;28;10821;-66
2023/04/10 07:44:13;;;;;;;;;19.25;16.50;;;;;10.88;56.93;101631.38;5020610;28;10813;-67
2023/04/10 07:46:40;;;;;;;;;14.00;12.75;;;;;10.81;56.78;101627.72;5020508;28;10899;-67
2023/04/10 07:49:07;;;;;;;;;18.00;16.25;;;;;10.85;58.25;101627.19;5021209;28;10651;-68
2023/04/10 07:51:34;;;;;;;;;21.75;19.00;;;;;10.80;56.83;101620.66;5030529;28;11635;-67
2023/04/10 07:54:02;;;;;;;;;19.75;15.75;;;;;10.85;56.88;101612.88;5021058;28;11576;-68
2023/04/10 07:56:30;;;;;;;;;20.75;19.00;;;;;10.87;56.54;101621.63;5020391;28;10796;-69
2023/04/10 07:58:59;;;;;;;;;17.25;12.00;;;;;11.00;56.48;101619.19;5017258;28;11779;-68
2023/04/10 08:01:27;;;;;;;;;18.50;16.00;;;;;11.02;56.39;101621.69;5021308;28;10871;-69
2023/04/10 08:03:55;;;;;;;;;19.75;18.75;;;;;11.01;56.31;101614.63;5016797;28;10850;-68
2023/04/10 08:06:21;;;;;;;;;18.50;13.25;;;;;11.07;56.51;101606.69;5017422;28;10571;-66
2023/04/10 08:08:48;;;;;;;;;17.50;12.00;;;;;11.18;56.33;101599.19;5024473;28;10779;-69
2023/04/10 08:11:26;;;;;;;;;17.75;12.75;;;;;11.33;56.37;101606.31;5024200;28;10434;-67
2023/04/10 08:13:55;;;;;;;;;19.00;16.00;;;;;11.39;56.00;101591.31;5021161;28;11702;-65
2023/04/10 08:16:26;;;;;;;;;21.00;17.75;;;;;11.42;55.52;101590.91;5023464;28;10787;-66
2023/04/10 08:18:54;;;;;;;;;14.00;12.75;;;;;11.43;55.28;101576.44;5023595;28;11475;-67
2023/04/10 08:21:21;;;;;;;;;16.00;15.00;;;;;11.50;55.89;101573.84;5023584;28;10556;-67
2023/04/10 08:23:52;;;;;;;;;19.75;15.00;;;;;11.43;54.99;101576.44;5026256;28;10696;-68
2023/04/10 08:26:20;;;;;;;;;21.25;19.00;;;;;11.42;55.36;101579.28;5019537;28;10494;-67
2023/04/10 08:28:51;;;;;;;;;17.00;17.00;;;;;11.32;55.12;101569.63;5018613;28;10819;-67
2023/04/10 08:31:20;;;;;;;;;16.00;14.25;;;;;11.39;54.99;101567.88;5020837;28;10664;-68
2023/04/10 08:33:47;;;;;;;;;19.25;17.75;;;;;11.32;55.27;101560.69;5024204;28;10827;-67
2023/04/10 08:36:15;;;;;;;;;17.00;16.00;;;;;11.36;55.46;101554.75;5021563;28;10680;-65
2023/04/10 08:38:45;;;;;;;;;24.25;17.25;;;;;11.38;55.33;101563.50;5012069;28;10576;-65
2023/04/10 08:41:14;;;;;;;;;14.75;14.50;;;;;11.39;55.25;101564.34;5024920;28;10889;-64
2023/04/10 08:43:42;;;;;;;;;17.00;14.75;;;;;11.33;55.24;101570.44;5027509;28;10486;-65
2023/04/10 08:46:08;;;;;;;;;13.25;13.25;;;;;11.32;55.13;101560.69;5017582;28;10516;-68
2023/04/10 08:48:43;;;;;;;;;20.50;17.75;;;;;11.35;55.25;101566.56;5022505;28;10580;-68
2023/04/10 08:51:20;;;;;;;;;17.00;16.25;;;;;11.38;55.21;101552.72;5026344;28;10563;-69
2023/04/10 08:53:57;;;;;;;;;19.50;16.00;;;;;11.38;55.01;101562.66;5016218;28;11334;-66
2023/04/10 08:56:24;;;;;;;;;20.25;18.00;;;;;11.36;55.07;101548.53;5023045;28;10578;-67
2023/04/10 08:58:50;;;;;;;;;16.50;15.25;;;;;11.31;55.22;101532.06;5017582;28;10840;-67
2023/04/10 09:01:20;;;;;;;;;15.75;13.75;;;;;11.36;55.09;101537.75;5025527;28;10527;-67
2023/04/10 09:03:47;;;;;;;;;22.00;15.75;;;;;11.42;55.23;101525.38;5017833;28;10522;-69
2023/04/10 09:06:14;;;;;;;;;12.50;12.50;;;;;11.51;55.26;101537.78;5025695;28;10627;-68
2023/04/10 09:08:40;;;;;;;;;18.50;15.50;;;;;11.55;55.25;101531.00;5022379;28;10573;-70
2023/04/10 09:11:07;;;;;;;;;16.00;13.00;;;;;11.63;56.45;101517.44;5018993;28;10587;-68
2023/04/10 09:13:38;;;;;;;;;14.00;12.75;;;;;11.71;55.92;101513.78;5021681;28;10514;-68
2023/04/10 09:16:06;;;;;;;;;16.50;15.75;;;;;11.72;56.08;101519.03;5022018;28;10510;-69
2023/04/10 09:18:50;;;;;;;;;17.75;16.25;;;;;11.71;56.11;101511.97;5021666;28;10661;-68
2023/04/10 09:21:19;;;;;;;;;17.75;16.25;;;;;11.82;56.09;101510.63;5020032;28;10548;-69
2023/04/10 09:23:47;;;;;;;;;16.00;16.00;;;;;11.87;55.78;101501.03;5029973;28;10577;-68
2023/04/10 09:26:26;;;;;;;;;19.50;16.00;;;;;11.88;55.58;101507.25;5023444;28;10675;-68
2023/04/10 09:29:03;;;;;;;;;14.00;13.00;;;;;11.82;55.57;101500.69;5018330;28;10519;-68
2023/04/10 09:31:35;;;;;;;;;16.25;14.50;;;;;11.85;55.58;101494.13;5022960;28;10567;-68
2023/04/10 09:34:10;;;;;;;;;19.50;15.50;;;;;11.89;55.15;101500.81;5021493;28;10461;-69
2023/04/10 09:36:37;;;;;;;;;14.75;14.75;;;;;11.93;55.13;101490.50;5025556;28;10580;-68
2023/04/10 09:39:04;;;;;;;;;15.75;15.75;;;;;11.97;54.93;101478.31;5021904;28;10350;-67
2023/04/10 09:41:31;;;;;;;;;21.25;19.00;;;;;12.03;55.30;101473.00;5020292;28;10418;-68
2023/04/10 09:44:29;;;;;;;;;15.00;15.00;;;;;12.14;54.99;101460.88;5017094;28;11210;-69
2023/04/10 09:46:56;;;;;;;;;16.00;14.25;;;;;12.27;54.93;101461.00;5018122;28;10309;-68
2023/04/10 09:49:23;;;;;;;;;17.00;16.00;;;;;12.35;54.49;101463.59;5027802;28;11090;-67
2023/04/10 09:51:50;;;;;;;;;15.50;14.25;;;;;12.35;53.93;101450.09;5024974;28;10269;-68
2023/04/10 09:54:16;;;;;;;;;16.75;16.50;;;;;12.36;54.29;101454.50;5019869;28;10589;-68
2023/04/10 09:56:44;;;;;;;;;15.25;15.25;;;;;12.38;54.53;101460.53;5026094;28;10269;-67
2023/04/10 09:59:13;;;;;;;;;18.00;17.25;;;;;12.36;53.93;101446.41;5023057;28;10325;-67
2023/04/10 10:01:41;;;;;;;;;14.75;14.50;;;;;12.31;54.03;101435.31;5017704;28;10164;-68
2023/04/10 10:04:08;;;;;;;;;15.00;15.00;;;;;12.34;54.33;101436.81;5021395;28;10196;-68
2023/04/10 10:06:37;;;;;;;;;15.50;13.25;;;;;12.38;54.35;101427.28;5015634;28;10356;-68
2023/04/10 10:09:04;;;;;;;;;18.25;16.25;;;;;12.38;54.44;101419.19;5016585;28;10363;-67
2023/04/10 10:11:34;;;;;;;;;14.75;14.25;;;;;12.33;54.05;101416.25;5024116;28;10420;-68
2023/04/10 10:14:14;;;;;;;;;15.00;14.00;;;;;12.33;54.03;101421.63;5019627;28;11204;-67
2023/04/10 10:16:49;;;;;;;;;14.50;13.00;;;;;12.42;54.35;101419.66;5034990;28;11009;-68
2023/04/10 10:19:28;;;;;;;;;18.25;18.25;;;;;12.44;54.06;101406.81;5024362;28;10364;-67
2023/04/10 10:21:55;;;;;;;;;14.25;13.75;;;;;12.52;53.97;101412.91;5014489;28;10391;-66
2023/04/10 10:24:25;;;;;;;;;21.25;17.00;;;;;12.47;54.16;101395.59;5021553;28;10477;-66
2023/04/10 10:26:58;;;;;;;;;19.00;14.00;;;;;12.44;54.39;101396.00;5025284;28;10573;-67
2023/04/10 10:29:25;;;;;;;;;21.75;18.25;;;;;12.53;54.52;101392.13;5024356;28;10528;-67
2023/04/10 10:31:52;;;;;;;;;21.75;19.75;;;;;12.57;54.34;101391.56;5023990;28;10433;-68
2023/04/10 10:34:19;;;;;;;;;15.00;13.00;;;;;12.66;54.24;101400.34;5021564;28;11134;-69
2023/04/10 10:36:45;;;;;;;;;23.50;22.25;;;;;12.70;54.33;101396.22;5020129;28;10234;-67
2023/04/10 10:39:27;;;;;;;;;16.25;15.00;;;;;12.69;54.19;101382.94;5026590;28;10513;-68
2023/04/10 10:42:31;;;;;;;;;12.00;11.25;;;;;12.80;54.48;101364.34;5020563;28;10366;-67
2023/04/10 10:45:17;;;;;;;;;12.25;12.25;;;;;12.74;54.45;101357.00;5038787;23;10246;-66
2023/04/10 10:47:48;;;;;;;;;14.75;12.50;;;;;12.83;54.61;101357.69;5030821;28;10210;-67
2023/04/10 10:50:14;;;;;;;;;18.75;17.25;;;;;12.94;54.85;101370.66;5026587;28;10251;-67
2023/04/10 10:52:42;;;;;;;;;17.00;15.75;;;;;13.11;54.30;101349.56;5031055;28;10267;-66
2023/04/10 10:55:21;;;;;;;;;13.50;10.75;;;;;13.40;58.31;101336.84;5030124;28;10233;-64
2023/04/10 10:57:52;;;;;;;;;22.25;15.00;;;;;13.65;56.87;101331.75;5029138;28;9992;-66
2023/04/10 11:00:20;;;;;;;;;15.00;13.00;;;;;13.66;53.58;101320.75;5030348;28;10196;-67
2023/04/10 11:03:19;;;;;;;;;14.50;14.50;;;;;13.64;53.05;101308.44;5030008;28;10087;-67
2023/04/10 11:06:01;;;;;;;;;15.00;15.00;;;;;13.52;52.77;101297.38;5016186;28;10236;-67
2023/04/10 11:08:46;;;;;;;;;12.75;11.25;;;;;13.64;52.63;101305.75;5031170;28;10228;-66
2023/04/10 11:11:20;;;;;;;;;16.50;14.75;;;;;13.65;52.69;101296.59;5031263;28;10170;-67
2023/04/10 11:13:59;;;;;;;;;19.00;17.50;;;;;13.71;52.95;101293.91;5013899;28;10021;-67
2023/04/10 11:16:28;;;;;;;;;22.75;18.00;;;;;13.80;52.93;101297.25;5031056;28;10118;-67
2023/04/10 11:19:06;;;;;;;;;16.75;16.75;;;;;13.75;52.44;101305.16;5030393;28;10275;-67
2023/04/10 11:22:07;;;;;;;;;20.25;20.25;;;;;13.78;52.49;101299.34;5010555;28;10942;-67
2023/04/10 11:24:52;;;;;;;;;20.75;19.50;;;;;13.82;52.43;101290.63;5009650;28;10012;-67
2023/04/10 11:27:39;;;;;;;;;20.25;19.00;;;;;13.84;52.37;101272.28;5012590;28;10305;-66
2023/04/10 11:30:31;;;;;;;;;21.50;17.00;;;;;14.04;52.28;101268.78;5031362;28;10226;-67
2023/04/10 11:32:59;;;;;;;;;19.25;13.75;;;;;14.14;52.44;101271.06;5030839;28;10265;-67